sensor_id;sensor_type;location;lat;lon;timestamp;pressure;altitude;pressure_sealevel;temperature;humidity
62948;BME280;51940;52.126;-0.994;2022-08-07T00:01:10;101736.39;;;13.51;57.03
62948;BME280;51940;52.126;-0.994;2022-08-07T00:03:36;101736.36;;;13.41;57.22
62948;BME280;51940;52.126;-0.994;2022-08-07T00:06:02;101734.70;;;13.32;57.37
62948;BME280;51940;52.126;-0.994;2022-08-07T00:08:28;101732.48;;;13.23;57.64
62948;BME280;51940;52.126;-0.994;2022-08-07T00:10:53;101731.44;;;13.21;57.60
62948;BME280;51940;52.126;-0.994;2022-08-07T00:13:20;101734.36;;;13.14;57.71
62948;BME280;51940;52.126;-0.994;2022-08-07T00:15:47;101734.23;;;13.11;57.80
62948;BME280;51940;52.126;-0.994;2022-08-07T00:18:14;101732.23;;;13.13;57.78
62948;BME280;51940;52.126;-0.994;2022-08-07T00:20:40;101728.95;;;13.19;57.91
62948;BME280;51940;52.126;-0.994;2022-08-07T00:23:06;101722.61;;;13.25;57.84
62948;BME280;51940;52.126;-0.994;2022-08-07T00:25:32;101722.77;;;13.27;57.84
62948;BME280;51940;52.126;-0.994;2022-08-07T00:27:57;101722.61;;;13.25;57.83
62948;BME280;51940;52.126;-0.994;2022-08-07T00:30:23;101722.98;;;13.25;57.75
62948;BME280;51940;52.126;-0.994;2022-08-07T00:32:49;101722.98;;;13.22;57.71
62948;BME280;51940;52.126;-0.994;2022-08-07T00:35:17;101722.36;;;13.15;57.81
62948;BME280;51940;52.126;-0.994;2022-08-07T00:37:43;101721.48;;;13.13;57.94
62948;BME280;51940;52.126;-0.994;2022-08-07T00:40:09;101722.10;;;13.07;57.99
62948;BME280;51940;52.126;-0.994;2022-08-07T00:42:36;101723.72;;;13.06;58.25
62948;BME280;51940;52.126;-0.994;2022-08-07T00:45:05;101727.80;;;13.10;58.30
62948;BME280;51940;52.126;-0.994;2022-08-07T00:47:31;101726.39;;;13.08;58.28
62948;BME280;51940;52.126;-0.994;2022-08-07T00:49:57;101729.46;;;13.05;58.52
62948;BME280;51940;52.126;-0.994;2022-08-07T00:52:22;101731.40;;;13.09;58.47
62948;BME280;51940;52.126;-0.994;2022-08-07T00:54:48;101732.98;;;13.11;58.41
62948;BME280;51940;52.126;-0.994;2022-08-07T00:57:16;101733.51;;;13.12;58.63
62948;BME280;51940;52.126;-0.994;2022-08-07T00:59:41;101729.60;;;13.09;59.01
62948;BME280;51940;52.126;-0.994;2022-08-07T01:02:08;101733.89;;;13.10;59.08
62948;BME280;51940;52.126;-0.994;2022-08-07T01:04:34;101736.16;;;13.13;58.85
62948;BME280;51940;52.126;-0.994;2022-08-07T01:07:00;101729.65;;;13.19;58.54
62948;BME280;51940;52.126;-0.994;2022-08-07T01:09:26;101727.36;;;13.30;58.26
62948;BME280;51940;52.126;-0.994;2022-08-07T01:11:52;101731.17;;;13.27;58.69
62948;BME280;51940;52.126;-0.994;2022-08-07T01:14:21;101726.32;;;13.13;58.87
62948;BME280;51940;52.126;-0.994;2022-08-07T01:16:47;101725.85;;;13.08;58.87
62948;BME280;51940;52.126;-0.994;2022-08-07T01:19:18;101728.98;;;13.16;58.44
62948;BME280;51940;52.126;-0.994;2022-08-07T01:21:50;101728.23;;;13.03;58.55
62948;BME280;51940;52.126;-0.994;2022-08-07T01:24:17;101731.69;;;12.85;58.84
62948;BME280;51940;52.126;-0.994;2022-08-07T01:26:44;101729.00;;;12.70;59.11
62948;BME280;51940;52.126;-0.994;2022-08-07T01:29:10;101722.88;;;12.58;59.45
62948;BME280;51940;52.126;-0.994;2022-08-07T01:31:37;101718.52;;;12.45;59.77
62948;BME280;51940;52.126;-0.994;2022-08-07T01:34:03;101722.38;;;12.36;60.05
62948;BME280;51940;52.126;-0.994;2022-08-07T01:36:31;101725.50;;;12.27;60.23
62948;BME280;51940;52.126;-0.994;2022-08-07T01:38:57;101720.33;;;12.27;60.41
62948;BME280;51940;52.126;-0.994;2022-08-07T01:41:23;101721.89;;;12.33;60.51
62948;BME280;51940;52.126;-0.994;2022-08-07T01:43:50;101720.48;;;12.31;60.64
62948;BME280;51940;52.126;-0.994;2022-08-07T01:46:17;101723.58;;;12.25;61.03
62948;BME280;51940;52.126;-0.994;2022-08-07T01:48:44;101717.90;;;12.19;61.34
62948;BME280;51940;52.126;-0.994;2022-08-07T01:51:13;101719.13;;;12.22;61.38
62948;BME280;51940;52.126;-0.994;2022-08-07T01:53:44;101720.20;;;12.23;61.38
62948;BME280;51940;52.126;-0.994;2022-08-07T01:56:23;101716.86;;;12.16;61.38
62948;BME280;51940;52.126;-0.994;2022-08-07T01:58:52;101722.69;;;12.04;61.54
62948;BME280;51940;52.126;-0.994;2022-08-07T02:01:24;101720.47;;;11.92;61.66
62948;BME280;51940;52.126;-0.994;2022-08-07T02:04:04;101725.75;;;11.81;61.83
62948;BME280;51940;52.126;-0.994;2022-08-07T02:06:33;101722.52;;;11.83;61.63
62948;BME280;51940;52.126;-0.994;2022-08-07T02:09:02;101724.52;;;11.73;61.74
62948;BME280;51940;52.126;-0.994;2022-08-07T02:11:32;101727.83;;;11.60;62.14
62948;BME280;51940;52.126;-0.994;2022-08-07T02:14:00;101723.98;;;11.47;62.26
62948;BME280;51940;52.126;-0.994;2022-08-07T02:16:27;101724.93;;;11.39;62.66
62948;BME280;51940;52.126;-0.994;2022-08-07T02:18:55;101723.02;;;11.29;62.75
62948;BME280;51940;52.126;-0.994;2022-08-07T02:21:21;101719.66;;;11.23;63.02
62948;BME280;51940;52.126;-0.994;2022-08-07T02:23:48;101718.09;;;11.16;63.32
62948;BME280;51940;52.126;-0.994;2022-08-07T02:26:15;101716.88;;;11.08;63.54
62948;BME280;51940;52.126;-0.994;2022-08-07T02:28:41;101716.02;;;11.03;63.89
62948;BME280;51940;52.126;-0.994;2022-08-07T02:31:08;101715.15;;;10.98;63.96
62948;BME280;51940;52.126;-0.994;2022-08-07T02:33:36;101709.82;;;10.92;64.18
62948;BME280;51940;52.126;-0.994;2022-08-07T02:36:04;101706.80;;;10.85;64.50
62948;BME280;51940;52.126;-0.994;2022-08-07T02:38:34;101708.09;;;10.80;64.81
62948;BME280;51940;52.126;-0.994;2022-08-07T02:41:01;101707.89;;;10.82;64.94
62948;BME280;51940;52.126;-0.994;2022-08-07T02:43:28;101710.55;;;10.88;64.96
62948;BME280;51940;52.126;-0.994;2022-08-07T02:45:56;101706.73;;;11.03;64.63
62948;BME280;51940;52.126;-0.994;2022-08-07T02:48:22;101702.77;;;11.12;64.51
62948;BME280;51940;52.126;-0.994;2022-08-07T02:50:51;101702.23;;;11.09;64.85
62948;BME280;51940;52.126;-0.994;2022-08-07T02:53:24;101697.03;;;11.15;64.71
62948;BME280;51940;52.126;-0.994;2022-08-07T02:55:51;101699.66;;;11.22;64.48
62948;BME280;51940;52.126;-0.994;2022-08-07T02:58:19;101696.98;;;11.21;64.61
62948;BME280;51940;52.126;-0.994;2022-08-07T03:00:50;101700.80;;;11.11;64.89
62948;BME280;51940;52.126;-0.994;2022-08-07T03:03:18;101699.98;;;10.99;65.22
62948;BME280;51940;52.126;-0.994;2022-08-07T03:05:45;101696.96;;;10.91;65.50
62948;BME280;51940;52.126;-0.994;2022-08-07T03:08:11;101694.52;;;10.82;65.54
62948;BME280;51940;52.126;-0.994;2022-08-07T03:10:38;101696.15;;;10.73;65.64
62948;BME280;51940;52.126;-0.994;2022-08-07T03:13:05;101696.37;;;10.62;65.78
62948;BME280;51940;52.126;-0.994;2022-08-07T03:15:33;101698.73;;;10.52;65.97
62948;BME280;51940;52.126;-0.994;2022-08-07T03:17:59;101698.19;;;10.50;66.00
62948;BME280;51940;52.126;-0.994;2022-08-07T03:20:25;101695.13;;;10.62;65.98
62948;BME280;51940;52.126;-0.994;2022-08-07T03:22:52;101694.05;;;10.62;65.83
62948;BME280;51940;52.126;-0.994;2022-08-07T03:25:19;101695.66;;;10.58;66.18
62948;BME280;51940;52.126;-0.994;2022-08-07T03:27:45;101695.12;;;10.59;66.04
62948;BME280;51940;52.126;-0.994;2022-08-07T03:30:13;101697.81;;;10.60;66.09
62948;BME280;51940;52.126;-0.994;2022-08-07T03:32:41;101694.57;;;10.65;66.21
62948;BME280;51940;52.126;-0.994;2022-08-07T03:35:21;101694.00;;;10.74;65.86
62948;BME280;51940;52.126;-0.994;2022-08-07T03:37:52;101692.92;;;10.79;65.74
62948;BME280;51940;52.126;-0.994;2022-08-07T03:40:19;101690.29;;;10.69;66.03
62948;BME280;51940;52.126;-0.994;2022-08-07T03:42:45;101687.10;;;10.63;66.40
62948;BME280;51940;52.126;-0.994;2022-08-07T03:45:21;101687.65;;;10.59;66.38
62948;BME280;51940;52.126;-0.994;2022-08-07T03:47:48;101684.99;;;10.49;66.50
62948;BME280;51940;52.126;-0.994;2022-08-07T03:50:15;101685.20;;;10.44;66.70
62948;BME280;51940;52.126;-0.994;2022-08-07T03:52:43;101683.95;;;10.41;67.00
62948;BME280;51940;52.126;-0.994;2022-08-07T03:55:09;101680.55;;;10.46;66.92
62948;BME280;51940;52.126;-0.994;2022-08-07T03:57:35;101678.05;;;10.51;66.63
62948;BME280;51940;52.126;-0.994;2022-08-07T04:00:02;101680.91;;;10.40;66.64
62948;BME280;51940;52.126;-0.994;2022-08-07T04:02:28;101676.13;;;10.31;66.95
62948;BME280;51940;52.126;-0.994;2022-08-07T04:04:54;101673.09;;;10.31;67.01
62948;BME280;51940;52.126;-0.994;2022-08-07T04:07:20;101669.88;;;10.33;67.02
62948;BME280;51940;52.126;-0.994;2022-08-07T04:09:46;101671.13;;;10.33;66.88
62948;BME280;51940;52.126;-0.994;2022-08-07T04:12:16;101667.77;;;10.26;66.88
62948;BME280;51940;52.126;-0.994;2022-08-07T04:14:42;101668.10;;;10.16;67.16
62948;BME280;51940;52.126;-0.994;2022-08-07T04:17:09;101668.11;;;10.04;67.42
62948;BME280;51940;52.126;-0.994;2022-08-07T04:19:39;101668.67;;;10.00;67.94
62948;BME280;51940;52.126;-0.994;2022-08-07T04:22:05;101668.64;;;10.06;67.73
62948;BME280;51940;52.126;-0.994;2022-08-07T04:24:31;101670.25;;;10.08;67.85
62948;BME280;51940;52.126;-0.994;2022-08-07T04:26:57;101664.90;;;10.12;67.42
62948;BME280;51940;52.126;-0.994;2022-08-07T04:29:23;101663.84;;;10.07;67.70
62948;BME280;51940;52.126;-0.994;2022-08-07T04:31:49;101657.60;;;9.99;68.04
62948;BME280;51940;52.126;-0.994;2022-08-07T04:34:15;101654.60;;;10.01;68.08
62948;BME280;51940;52.126;-0.994;2022-08-07T04:36:40;101657.08;;;9.99;68.42
62948;BME280;51940;52.126;-0.994;2022-08-07T04:39:08;101654.41;;;9.95;68.62
62948;BME280;51940;52.126;-0.994;2022-08-07T04:41:33;101652.80;;;9.97;68.72
62948;BME280;51940;52.126;-0.994;2022-08-07T04:44:00;101648.34;;;10.01;68.74
62948;BME280;51940;52.126;-0.994;2022-08-07T04:46:43;101646.73;;;10.00;68.68
62948;BME280;51940;52.126;-0.994;2022-08-07T04:49:17;101646.22;;;9.95;68.50
62948;BME280;51940;52.126;-0.994;2022-08-07T04:52:29;101644.98;;;9.88;68.75
62948;BME280;51940;52.126;-0.994;2022-08-07T04:54:51;101646.21;;;9.81;69.05
62948;BME280;51940;52.126;-0.994;2022-08-07T05:02:51;101653.69;;;10.12;68.69
62948;BME280;51940;52.126;-0.994;2022-08-07T05:07:59;101644.59;;;12.14;65.28
62948;BME280;51940;52.126;-0.994;2022-08-07T05:10:34;101645.70;;;13.27;62.99
62948;BME280;51940;52.126;-0.994;2022-08-07T05:13:17;101648.13;;;14.36;60.86
62948;BME280;51940;52.126;-0.994;2022-08-07T05:15:47;101646.05;;;15.48;58.09
62948;BME280;51940;52.126;-0.994;2022-08-07T05:18:18;101648.52;;;16.52;55.80
62948;BME280;51940;52.126;-0.994;2022-08-07T05:20:47;101648.98;;;17.61;53.15
62948;BME280;51940;52.126;-0.994;2022-08-07T05:23:19;101656.84;;;18.61;51.03
62948;BME280;51940;52.126;-0.994;2022-08-07T05:25:46;101655.98;;;19.49;48.90
62948;BME280;51940;52.126;-0.994;2022-08-07T05:28:13;101654.59;;;20.45;47.09
62948;BME280;51940;52.126;-0.994;2022-08-07T05:30:40;101653.48;;;21.42;45.03
62948;BME280;51940;52.126;-0.994;2022-08-07T05:33:07;101656.52;;;22.36;43.31
62948;BME280;51940;52.126;-0.994;2022-08-07T05:35:34;101653.10;;;23.31;41.42
62948;BME280;51940;52.126;-0.994;2022-08-07T05:38:04;101652.73;;;24.12;39.21
62948;BME280;51940;52.126;-0.994;2022-08-07T05:40:32;101655.00;;;24.81;38.30
62948;BME280;51940;52.126;-0.994;2022-08-07T05:42:58;101657.99;;;25.51;36.63
62948;BME280;51940;52.126;-0.994;2022-08-07T05:45:25;101661.19;;;26.22;35.53
62948;BME280;51940;52.126;-0.994;2022-08-07T05:47:52;101661.39;;;27.00;34.37
62948;BME280;51940;52.126;-0.994;2022-08-07T05:50:19;101660.77;;;27.77;32.96
62948;BME280;51940;52.126;-0.994;2022-08-07T05:52:45;101670.40;;;28.51;31.89
62948;BME280;51940;52.126;-0.994;2022-08-07T05:55:11;101666.53;;;29.27;30.79
62948;BME280;51940;52.126;-0.994;2022-08-07T05:57:38;101671.23;;;30.10;29.24
62948;BME280;51940;52.126;-0.994;2022-08-07T06:00:08;101672.67;;;30.99;28.37
62948;BME280;51940;52.126;-0.994;2022-08-07T06:02:35;101670.79;;;31.78;27.19
62948;BME280;51940;52.126;-0.994;2022-08-07T06:05:06;101675.52;;;32.47;26.36
62948;BME280;51940;52.126;-0.994;2022-08-07T06:07:33;101678.06;;;33.11;25.13
62948;BME280;51940;52.126;-0.994;2022-08-07T06:10:00;101680.93;;;33.53;24.42
62948;BME280;51940;52.126;-0.994;2022-08-07T06:12:28;101681.19;;;33.93;23.80
62948;BME280;51940;52.126;-0.994;2022-08-07T06:14:54;101681.34;;;34.18;23.79
62948;BME280;51940;52.126;-0.994;2022-08-07T06:17:22;101680.82;;;34.51;23.16
62948;BME280;51940;52.126;-0.994;2022-08-07T06:19:48;101686.60;;;34.98;22.58
62948;BME280;51940;52.126;-0.994;2022-08-07T06:22:16;101687.60;;;35.57;22.09
62948;BME280;51940;52.126;-0.994;2022-08-07T06:24:43;101689.48;;;36.11;21.38
62948;BME280;51940;52.126;-0.994;2022-08-07T06:27:08;101687.56;;;36.67;20.70
62948;BME280;51940;52.126;-0.994;2022-08-07T06:29:34;101689.27;;;37.07;20.61
62948;BME280;51940;52.126;-0.994;2022-08-07T06:32:00;101687.54;;;37.31;19.83
62948;BME280;51940;52.126;-0.994;2022-08-07T06:34:26;101693.61;;;37.44;19.78
62948;BME280;51940;52.126;-0.994;2022-08-07T06:36:52;101692.77;;;37.22;20.01
62948;BME280;51940;52.126;-0.994;2022-08-07T06:39:21;101695.02;;;36.14;20.70
62948;BME280;51940;52.126;-0.994;2022-08-07T06:41:59;101696.39;;;34.91;21.59
62948;BME280;51940;52.126;-0.994;2022-08-07T06:44:27;101696.59;;;33.43;22.67
62948;BME280;51940;52.126;-0.994;2022-08-07T06:46:53;101693.64;;;32.64;23.62
62948;BME280;51940;52.126;-0.994;2022-08-07T06:49:18;101696.62;;;32.31;23.94
62948;BME280;51940;52.126;-0.994;2022-08-07T06:51:45;101694.65;;;32.34;24.13
62948;BME280;51940;52.126;-0.994;2022-08-07T06:54:13;101692.64;;;32.16;24.51
62948;BME280;51940;52.126;-0.994;2022-08-07T06:56:42;101696.09;;;31.35;25.40
62948;BME280;51940;52.126;-0.994;2022-08-07T06:59:17;101698.23;;;30.47;26.37
62948;BME280;51940;52.126;-0.994;2022-08-07T07:01:45;101692.77;;;29.74;27.39
62948;BME280;51940;52.126;-0.994;2022-08-07T07:04:12;101689.64;;;29.07;28.44
62948;BME280;51940;52.126;-0.994;2022-08-07T07:06:38;101689.42;;;28.62;29.26
62948;BME280;51940;52.126;-0.994;2022-08-07T07:09:20;101684.30;;;28.17;30.02
62948;BME280;51940;52.126;-0.994;2022-08-07T07:14:40;101686.41;;;27.33;31.13
62948;BME280;51940;52.126;-0.994;2022-08-07T07:17:17;101679.48;;;26.85;31.81
62948;BME280;51940;52.126;-0.994;2022-08-07T07:19:48;101680.67;;;26.50;32.76
62948;BME280;51940;52.126;-0.994;2022-08-07T07:22:16;101683.81;;;26.23;33.07
62948;BME280;51940;52.126;-0.994;2022-08-07T07:24:43;101683.42;;;26.00;33.31
62948;BME280;51940;52.126;-0.994;2022-08-07T07:27:10;101683.16;;;25.74;33.85
62948;BME280;51940;52.126;-0.994;2022-08-07T07:29:40;101682.48;;;25.51;34.28
62948;BME280;51940;52.126;-0.994;2022-08-07T07:32:11;101685.61;;;25.23;34.75
62948;BME280;51940;52.126;-0.994;2022-08-07T07:34:40;101686.53;;;25.11;35.37
62948;BME280;51940;52.126;-0.994;2022-08-07T07:37:07;101688.61;;;25.10;35.28
62948;BME280;51940;52.126;-0.994;2022-08-07T07:39:34;101685.05;;;24.94;34.67
62948;BME280;51940;52.126;-0.994;2022-08-07T07:42:01;101683.55;;;24.75;35.13
62948;BME280;51940;52.126;-0.994;2022-08-07T07:44:30;101683.16;;;24.43;35.09
62948;BME280;51940;52.126;-0.994;2022-08-07T07:46:58;101686.88;;;24.05;36.11
62948;BME280;51940;52.126;-0.994;2022-08-07T07:49:26;101687.44;;;23.90;36.61
62948;BME280;51940;52.126;-0.994;2022-08-07T07:51:55;101682.99;;;23.82;37.08
62948;BME280;51940;52.126;-0.994;2022-08-07T07:54:22;101679.54;;;23.85;37.17
62948;BME280;51940;52.126;-0.994;2022-08-07T07:56:49;101679.42;;;23.93;36.96
62948;BME280;51940;52.126;-0.994;2022-08-07T07:59:18;101676.56;;;23.92;37.35
62948;BME280;51940;52.126;-0.994;2022-08-07T08:01:47;101671.14;;;23.85;37.55
62948;BME280;51940;52.126;-0.994;2022-08-07T08:04:16;101669.33;;;23.91;37.50
62948;BME280;51940;52.126;-0.994;2022-08-07T08:06:44;101671.84;;;23.92;36.79
62948;BME280;51940;52.126;-0.994;2022-08-07T08:09:12;101668.33;;;23.89;37.47
62948;BME280;51940;52.126;-0.994;2022-08-07T08:11:39;101667.19;;;23.90;37.04
62948;BME280;51940;52.126;-0.994;2022-08-07T08:14:05;101664.58;;;23.79;36.93
62948;BME280;51940;52.126;-0.994;2022-08-07T08:16:38;101664.46;;;23.74;36.82
62948;BME280;51940;52.126;-0.994;2022-08-07T08:19:06;101660.96;;;23.78;37.31
62948;BME280;51940;52.126;-0.994;2022-08-07T08:21:36;101657.89;;;24.02;37.28
62948;BME280;51940;52.126;-0.994;2022-08-07T08:24:25;101657.41;;;24.22;36.81
62948;BME280;51940;52.126;-0.994;2022-08-07T08:27:12;101657.57;;;24.23;36.98
62948;BME280;51940;52.126;-0.994;2022-08-07T08:30:20;101656.46;;;24.11;36.55
62948;BME280;51940;52.126;-0.994;2022-08-07T08:32:56;101651.65;;;23.88;36.46
62948;BME280;51940;52.126;-0.994;2022-08-07T08:35:26;101652.35;;;23.67;37.22
62948;BME280;51940;52.126;-0.994;2022-08-07T08:38:03;101650.59;;;23.59;37.76
62948;BME280;51940;52.126;-0.994;2022-08-07T08:40:34;101652.60;;;23.59;37.84
62948;BME280;51940;52.126;-0.994;2022-08-07T08:43:20;101652.58;;;23.72;37.46
62948;BME280;51940;52.126;-0.994;2022-08-07T08:45:54;101649.48;;;23.53;37.48
62948;BME280;51940;52.126;-0.994;2022-08-07T08:51:13;101649.47;;;23.41;38.32
62948;BME280;51940;52.126;-0.994;2022-08-07T08:54:15;101650.36;;;23.54;38.56
62948;BME280;51940;52.126;-0.994;2022-08-07T08:56:47;101657.66;;;23.60;38.16
62948;BME280;51940;52.126;-0.994;2022-08-07T08:59:25;101654.97;;;23.59;38.01
62948;BME280;51940;52.126;-0.994;2022-08-07T09:05:02;101650.38;;;23.67;37.81
62948;BME280;51940;52.126;-0.994;2022-08-07T09:21:35;101633.89;;;23.77;38.04
62948;BME280;51940;52.126;-0.994;2022-08-07T09:30:05;101635.73;;;24.19;37.41
62948;BME280;51940;52.126;-0.994;2022-08-07T09:32:36;101639.52;;;24.35;36.47
62948;BME280;51940;52.126;-0.994;2022-08-07T09:38:01;101638.55;;;23.94;37.11
62948;BME280;51940;52.126;-0.994;2022-08-07T09:40:41;101640.11;;;23.95;37.28
62948;BME280;51940;52.126;-0.994;2022-08-07T09:43:24;101637.23;;;23.94;36.83
62948;BME280;51940;52.126;-0.994;2022-08-07T09:54:38;101622.27;;;24.80;35.85
62948;BME280;51940;52.126;-0.994;2022-08-07T09:57:10;101621.11;;;25.04;35.98
62948;BME280;51940;52.126;-0.994;2022-08-07T10:25:08;101597.59;;;26.70;33.29
62948;BME280;51940;52.126;-0.994;2022-08-07T10:30:52;101598.23;;;26.62;33.24
62948;BME280;51940;52.126;-0.994;2022-08-07T10:33:39;101601.70;;;26.59;32.67
62948;BME280;51940;52.126;-0.994;2022-08-07T10:38:59;101596.04;;;26.44;33.10
62948;BME280;51940;52.126;-0.994;2022-08-07T10:41:34;101587.67;;;26.61;32.97
62948;BME280;51940;52.126;-0.994;2022-08-07T10:44:23;101584.52;;;26.84;32.58
62948;BME280;51940;52.126;-0.994;2022-08-07T10:49:52;101586.27;;;26.68;32.48
62948;BME280;51940;52.126;-0.994;2022-08-07T10:52:33;101588.09;;;26.60;32.67
62948;BME280;51940;52.126;-0.994;2022-08-07T10:55:17;101580.48;;;26.52;32.88
62948;BME280;51940;52.126;-0.994;2022-08-07T11:00:14;101574.75;;;26.72;32.78
62948;BME280;51940;52.126;-0.994;2022-08-07T11:03:05;101574.62;;;26.69;32.70
62948;BME280;51940;52.126;-0.994;2022-08-07T11:08:21;101573.70;;;26.39;32.86
62948;BME280;51940;52.126;-0.994;2022-08-07T11:10:58;101571.95;;;26.14;32.64
62948;BME280;51940;52.126;-0.994;2022-08-07T11:13:46;101572.19;;;26.13;33.08
62948;BME280;51940;52.126;-0.994;2022-08-07T11:16:21;101565.24;;;26.42;32.72
62948;BME280;51940;52.126;-0.994;2022-08-07T11:18:52;101559.41;;;26.64;32.38
62948;BME280;51940;52.126;-0.994;2022-08-07T11:24:07;101555.94;;;26.59;32.07
62948;BME280;51940;52.126;-0.994;2022-08-07T11:29:21;101557.04;;;26.59;31.97
62948;BME280;51940;52.126;-0.994;2022-08-07T11:31:59;101558.11;;;26.62;32.05
62948;BME280;51940;52.126;-0.994;2022-08-07T11:37:12;101548.23;;;26.39;31.87
62948;BME280;51940;52.126;-0.994;2022-08-07T11:48:33;101532.70;;;26.74;32.22
62948;BME280;51940;52.126;-0.994;2022-08-07T12:07:24;101512.27;;;26.83;30.98
62948;BME280;51940;52.126;-0.994;2022-08-07T12:12:56;101507.67;;;26.83;30.60
62948;BME280;51940;52.126;-0.994;2022-08-07T12:15:33;101508.10;;;26.89;30.57
62948;BME280;51940;52.126;-0.994;2022-08-07T12:18:04;101509.15;;;26.81;31.02
62948;BME280;51940;52.126;-0.994;2022-08-07T12:20:57;101513.84;;;26.86;31.17
62948;BME280;51940;52.126;-0.994;2022-08-07T12:31:57;101506.01;;;26.98;30.98
62948;BME280;51940;52.126;-0.994;2022-08-07T12:34:31;101500.68;;;26.93;31.29
62948;BME280;51940;52.126;-0.994;2022-08-07T12:36:58;101502.70;;;27.01;31.13
62948;BME280;51940;52.126;-0.994;2022-08-07T12:39:28;101499.73;;;27.05;30.81
62948;BME280;51940;52.126;-0.994;2022-08-07T12:41:55;101497.58;;;27.09;30.93
62948;BME280;51940;52.126;-0.994;2022-08-07T12:44:24;101498.20;;;27.00;30.95
62948;BME280;51940;52.126;-0.994;2022-08-07T12:52:13;101497.02;;;26.98;31.01
62948;BME280;51940;52.126;-0.994;2022-08-07T12:54:53;101495.39;;;26.91;30.80
62948;BME280;51940;52.126;-0.994;2022-08-07T12:57:29;101493.17;;;26.89;30.96
62948;BME280;51940;52.126;-0.994;2022-08-07T12:59:58;101493.42;;;26.92;31.05
62948;BME280;51940;52.126;-0.994;2022-08-07T13:05:24;101492.81;;;26.83;31.04
62948;BME280;51940;52.126;-0.994;2022-08-07T13:08:21;101490.70;;;26.68;30.72
62948;BME280;51940;52.126;-0.994;2022-08-07T13:19:08;101474.55;;;26.81;31.35
62948;BME280;51940;52.126;-0.994;2022-08-07T13:21:42;101474.33;;;26.84;30.70
62948;BME280;51940;52.126;-0.994;2022-08-07T13:24:29;101472.67;;;26.79;31.23
62948;BME280;51940;52.126;-0.994;2022-08-07T13:27:30;101469.95;;;26.90;30.86
62948;BME280;51940;52.126;-0.994;2022-08-07T13:30:04;101466.85;;;27.05;30.64
62948;BME280;51940;52.126;-0.994;2022-08-07T13:32:43;101465.29;;;27.14;30.67
62948;BME280;51940;52.126;-0.994;2022-08-07T13:35:24;101460.63;;;27.17;30.00
62948;BME280;51940;52.126;-0.994;2022-08-07T13:38:01;101458.42;;;27.27;30.33
62948;BME280;51940;52.126;-0.994;2022-08-07T13:40:40;101452.82;;;27.40;30.36
62948;BME280;51940;52.126;-0.994;2022-08-07T13:43:13;101446.73;;;27.47;30.15
62948;BME280;51940;52.126;-0.994;2022-08-07T13:45:46;101445.71;;;27.58;30.04
62948;BME280;51940;52.126;-0.994;2022-08-07T13:48:13;101447.63;;;27.62;29.44
62948;BME280;51940;52.126;-0.994;2022-08-07T13:50:41;101445.45;;;27.59;29.63
62948;BME280;51940;52.126;-0.994;2022-08-07T13:53:31;101447.02;;;27.63;29.34
62948;BME280;51940;52.126;-0.994;2022-08-07T13:56:00;101439.36;;;27.62;29.17
62948;BME280;51940;52.126;-0.994;2022-08-07T13:58:28;101443.84;;;27.59;29.10
62948;BME280;51940;52.126;-0.994;2022-08-07T14:01:18;101444.88;;;27.59;29.24
62948;BME280;51940;52.126;-0.994;2022-08-07T14:03:45;101444.36;;;27.59;28.97
62948;BME280;51940;52.126;-0.994;2022-08-07T14:06:13;101436.89;;;27.53;29.02
62948;BME280;51940;52.126;-0.994;2022-08-07T14:08:46;101439.30;;;27.46;29.34
62948;BME280;51940;52.126;-0.994;2022-08-07T14:11:14;101441.14;;;27.44;28.82
62948;BME280;51940;52.126;-0.994;2022-08-07T14:13:41;101437.48;;;27.46;28.71
62948;BME280;51940;52.126;-0.994;2022-08-07T14:16:13;101438.10;;;27.43;28.32
62948;BME280;51940;52.126;-0.994;2022-08-07T14:18:51;101433.88;;;27.31;28.34
62948;BME280;51940;52.126;-0.994;2022-08-07T14:21:25;101429.05;;;27.23;28.78
62948;BME280;51940;52.126;-0.994;2022-08-07T14:23:58;101430.30;;;27.23;29.04
62948;BME280;51940;52.126;-0.994;2022-08-07T14:26:47;101428.52;;;27.25;29.12
62948;BME280;51940;52.126;-0.994;2022-08-07T14:29:17;101425.60;;;27.24;28.81
62948;BME280;51940;52.126;-0.994;2022-08-07T14:31:46;101425.70;;;27.23;28.74
62948;BME280;51940;52.126;-0.994;2022-08-07T14:34:13;101419.11;;;27.19;28.87
62948;BME280;51940;52.126;-0.994;2022-08-07T14:36:40;101420.15;;;27.17;28.93
62948;BME280;51940;52.126;-0.994;2022-08-07T14:39:07;101418.15;;;27.12;28.69
62948;BME280;51940;52.126;-0.994;2022-08-07T14:41:34;101412.12;;;27.10;28.89
62948;BME280;51940;52.126;-0.994;2022-08-07T14:44:06;101412.36;;;27.14;28.70
62948;BME280;51940;52.126;-0.994;2022-08-07T14:46:34;101413.16;;;27.03;28.44
62948;BME280;51940;52.126;-0.994;2022-08-07T14:49:02;101410.69;;;26.94;28.08
62948;BME280;51940;52.126;-0.994;2022-08-07T14:51:29;101410.14;;;26.85;28.26
62948;BME280;51940;52.126;-0.994;2022-08-07T14:53:58;101407.70;;;26.83;28.33
62948;BME280;51940;52.126;-0.994;2022-08-07T14:56:27;101406.42;;;26.81;28.23
62948;BME280;51940;52.126;-0.994;2022-08-07T14:58:55;101402.06;;;26.73;28.87
62948;BME280;51940;52.126;-0.994;2022-08-07T15:01:27;101403.23;;;26.70;29.16
62948;BME280;51940;52.126;-0.994;2022-08-07T15:03:58;101402.08;;;26.68;29.07
62948;BME280;51940;52.126;-0.994;2022-08-07T15:06:26;101398.54;;;26.64;28.88
62948;BME280;51940;52.126;-0.994;2022-08-07T15:08:54;101399.43;;;26.62;29.32
62948;BME280;51940;52.126;-0.994;2022-08-07T15:11:29;101393.86;;;26.61;29.11
62948;BME280;51940;52.126;-0.994;2022-08-07T15:13:59;101389.13;;;26.63;29.13
62948;BME280;51940;52.126;-0.994;2022-08-07T15:16:44;101384.95;;;26.65;29.15
62948;BME280;51940;52.126;-0.994;2022-08-07T15:19:14;101389.39;;;26.62;29.29
62948;BME280;51940;52.126;-0.994;2022-08-07T15:21:48;101389.45;;;26.59;29.34
62948;BME280;51940;52.126;-0.994;2022-08-07T15:24:28;101382.26;;;26.57;29.04
62948;BME280;51940;52.126;-0.994;2022-08-07T15:27:02;101382.10;;;26.57;29.41